createdAt,value
2022-10-02T00:02:03.951Z,100750.13
2022-10-02T00:04:38.816Z,100756.09
2022-10-02T00:07:11.655Z,100749.75
2022-10-02T00:09:46.679Z,100746.09
2022-10-02T00:12:21.001Z,100759.00
2022-10-02T00:14:53.531Z,100757.63
2022-10-02T00:17:27.431Z,100758.94
2022-10-02T00:19:57.174Z,100752.75
2022-10-02T00:22:38.454Z,100752.34
2022-10-02T00:25:16.748Z,100751.53
2022-10-02T00:27:57.899Z,100753.78
2022-10-02T00:30:28.790Z,100756.69
2022-10-02T00:33:09.600Z,100746.59
2022-10-02T00:36:10.225Z,100756.53
2022-10-02T00:38:50.407Z,100773.00
2022-10-02T00:41:38.302Z,100790.69
2022-10-02T00:44:23.220Z,100793.31
2022-10-02T00:47:02.775Z,100809.34
2022-10-02T00:49:54.582Z,100804.09
2022-10-02T00:52:40.385Z,100793.50
2022-10-02T00:55:28.255Z,100797.06
2022-10-02T00:58:18.426Z,100791.81
2022-10-02T01:01:00.096Z,100807.28
2022-10-02T01:03:34.822Z,100823.75
2022-10-02T01:06:05.411Z,100821.97
2022-10-02T01:08:36.208Z,100827.47
2022-10-02T01:11:06.518Z,100838.91
2022-10-02T01:13:36.073Z,100831.31
2022-10-02T01:16:11.727Z,100844.16
2022-10-02T01:18:41.810Z,100849.66
2022-10-02T01:21:17.494Z,100833.09
2022-10-02T01:23:52.718Z,100820.81
2022-10-02T01:26:23.120Z,100828.94
2022-10-02T01:28:52.084Z,100832.66
2022-10-02T01:31:22.116Z,100839.78
2022-10-02T01:33:51.680Z,100856.63
2022-10-02T01:36:21.986Z,100882.28
2022-10-02T01:38:53.534Z,100866.34
2022-10-02T01:41:24.378Z,100850.06
2022-10-02T01:43:57.231Z,100865.91
2022-10-02T01:46:36.286Z,100862.59
2022-10-02T01:49:18.221Z,100853.31
2022-10-02T01:51:59.040Z,100848.53
2022-10-02T01:54:41.438Z,100851.66
2022-10-02T01:57:24.965Z,100854.78
2022-10-02T02:00:06.570Z,100862.19
2022-10-02T02:02:52.208Z,100862.84
2022-10-02T02:05:33.784Z,100848.69
2022-10-02T02:08:10.405Z,100849.00
2022-10-02T02:10:48.146Z,100848.53
2022-10-02T02:13:26.551Z,100838.53
2022-10-02T02:16:02.720Z,100841.16
2022-10-02T02:18:40.146Z,100844.59
2022-10-02T02:21:14.496Z,100844.50
2022-10-02T02:23:44.386Z,100847.75
2022-10-02T02:26:16.950Z,100848.59
2022-10-02T02:28:53.642Z,100842.84
2022-10-02T02:31:30.626Z,100841.44
2022-10-02T02:34:03.576Z,100833.69
2022-10-02T02:36:37.656Z,100833.69
2022-10-02T02:39:12.059Z,100827.63
2022-10-02T02:41:46.207Z,100830.50
2022-10-02T02:44:23.184Z,100842.50
2022-10-02T02:47:06.626Z,100851.72
2022-10-02T02:49:44.215Z,100851.47
2022-10-02T02:52:18.683Z,100845.84
2022-10-02T02:54:53.864Z,100852.88
2022-10-02T02:57:29.571Z,100847.53
2022-10-02T03:00:02.582Z,100856.06
2022-10-02T03:02:31.771Z,100856.91
2022-10-02T03:05:00.793Z,100863.69
2022-10-02T03:07:29.897Z,100868.09
2022-10-02T03:10:07.129Z,100870.59
2022-10-02T03:12:49.962Z,100875.00
2022-10-02T03:15:29.009Z,100883.59
2022-10-02T03:18:21.506Z,100895.72
2022-10-02T03:21:02.997Z,100894.63
2022-10-02T03:23:37.951Z,100873.78
2022-10-02T03:26:13.209Z,100878.19
2022-10-02T03:28:57.076Z,100871.31
2022-10-02T03:31:32.901Z,100869.06
2022-10-02T03:34:04.194Z,100873.47
2022-10-02T03:36:34.211Z,100880.97
2022-10-02T03:39:24.145Z,100885.16
2022-10-02T03:41:54.989Z,100885.16
2022-10-02T03:44:24.168Z,100898.13
2022-10-02T03:46:54.598Z,100904.34
2022-10-02T03:49:23.647Z,100841.81
2022-10-02T03:51:52.602Z,100861.13
2022-10-02T03:54:23.077Z,100871.59
2022-10-02T03:56:56.730Z,100854.59
2022-10-02T03:59:38.882Z,100862.84
2022-10-02T04:02:17.704Z,100863.19
2022-10-02T04:04:52.191Z,100868.69
2022-10-02T04:07:27.101Z,100869.28
2022-10-02T04:10:09.457Z,100870.13
2022-10-02T04:12:42.643Z,100868.59
2022-10-02T04:15:24.305Z,100866.66
2022-10-02T04:18:01.676Z,100870.63
2022-10-02T04:20:37.584Z,100870.63
2022-10-02T04:23:16.312Z,100886.56
2022-10-02T04:25:50.286Z,100884.56
2022-10-02T04:28:23.523Z,100880.16
2022-10-02T04:30:53.792Z,100878.00
2022-10-02T04:33:25.678Z,100867.78
2022-10-02T04:36:08.675Z,100865.28
2022-10-02T04:39:00.209Z,100862.81
2022-10-02T04:41:55.309Z,100882.09
2022-10-02T04:44:37.759Z,100865.44
2022-10-02T04:47:27.570Z,100861.63
2022-10-02T04:50:31.067Z,100861.88
2022-10-02T04:53:22.590Z,100872.59
2022-10-02T04:56:09.133Z,100878.75
2022-10-02T04:58:59.533Z,100879.97
2022-10-02T05:01:44.920Z,100886.03
2022-10-02T05:04:37.639Z,100892.34
2022-10-02T05:07:29.104Z,100896.47
2022-10-02T05:10:10.350Z,100890.66
2022-10-02T05:12:54.939Z,100886.16
2022-10-02T05:15:46.282Z,100885.66
2022-10-02T05:18:31.193Z,100892.56
2022-10-02T05:21:22.500Z,100898.28
2022-10-02T05:24:12.569Z,100893.47
2022-10-02T05:27:07.875Z,100895.03
2022-10-02T05:29:53.973Z,100906.47
2022-10-02T05:32:41.551Z,100899.06
2022-10-02T05:35:33.939Z,100902.53
2022-10-02T05:38:14.573Z,100903.59
2022-10-02T05:40:51.404Z,100898.81
2022-10-02T05:43:31.654Z,100912.03
2022-10-02T05:46:07.235Z,100903.13
2022-10-02T05:48:44.212Z,100902.88
2022-10-02T05:51:20.442Z,100899.28
2022-10-02T05:53:56.968Z,100907.47
2022-10-02T05:56:35.662Z,100903.19
2022-10-02T05:59:13.900Z,100909.84
2022-10-02T06:01:47.045Z,100909.75
2022-10-02T06:04:22.840Z,100927.81
2022-10-02T06:06:55.961Z,100922.34
2022-10-02T06:09:27.843Z,100922.78
2022-10-02T06:12:04.014Z,100910.28
2022-10-02T06:14:37.338Z,100919.69
2022-10-02T06:17:11.270Z,100922.63
2022-10-02T06:19:45.950Z,100924.97
2022-10-02T06:22:19.914Z,100922.50
2022-10-02T06:24:53.406Z,100925.81
2022-10-02T06:27:32.626Z,100928.19
2022-10-02T06:30:04.666Z,100939.38
2022-10-02T06:32:38.984Z,100939.84
2022-10-02T06:35:14.066Z,100955.19
2022-10-02T06:38:11.316Z,100956.38
2022-10-02T06:40:48.003Z,100959.41
2022-10-02T06:43:50.073Z,100964.28
2022-10-02T06:46:28.988Z,100965.44
2022-10-02T06:49:01.393Z,100968.06
2022-10-02T06:51:45.253Z,100964.75
2022-10-02T06:54:30.934Z,100967.13
2022-10-02T06:57:16.611Z,100968.97
2022-10-02T07:00:03.794Z,100992.66
2022-10-02T07:02:57.682Z,100984.63
2022-10-02T07:05:48.173Z,100978.69
2022-10-02T07:08:27.357Z,100989.06
2022-10-02T07:11:06.032Z,101002.63
2022-10-02T07:13:49.925Z,101010.50
2022-10-02T07:16:37.125Z,101015.06
2022-10-02T07:19:40.816Z,101005.84
2022-10-02T07:22:43.302Z,101008.59
2022-10-02T07:25:33.262Z,101025.28
2022-10-02T07:28:13.126Z,101023.94
2022-10-02T07:30:52.114Z,101022.34
2022-10-02T07:33:36.555Z,101014.66
2022-10-02T07:36:10.828Z,101023.13
2022-10-02T07:38:58.756Z,101021.31
2022-10-02T07:41:57.637Z,101025.84
2022-10-02T07:44:42.070Z,101033.31
2022-10-02T07:47:23.776Z,101032.03
2022-10-02T07:50:03.355Z,101031.06
2022-10-02T07:52:41.851Z,101021.97
2022-10-02T07:55:18.393Z,101029.66
2022-10-02T07:58:02.213Z,101038.56
2022-10-02T08:00:35.636Z,101038.41
2022-10-02T08:03:09.238Z,101050.97
2022-10-02T08:05:45.101Z,101051.81
2022-10-02T08:08:21.674Z,101049.19
2022-10-02T08:10:56.678Z,101046.88
2022-10-02T08:13:32.903Z,101060.41
2022-10-02T08:16:05.680Z,101055.50
2022-10-02T08:18:37.926Z,101057.63
2022-10-02T08:21:14.317Z,101040.53
2022-10-02T08:23:49.169Z,101044.38
2022-10-02T08:26:26.600Z,101053.75
2022-10-02T08:29:08.374Z,101038.06
2022-10-02T08:31:37.397Z,101034.34
2022-10-02T08:34:17.561Z,101032.41
2022-10-02T08:37:20.744Z,101046.06
2022-10-02T08:40:33.209Z,101046.75
2022-10-02T08:43:28.830Z,101042.25
2022-10-02T08:46:42.087Z,101044.38
2022-10-02T08:50:07.845Z,101048.44
2022-10-02T08:53:10.441Z,101045.94
2022-10-02T08:56:20.168Z,101053.56
2022-10-02T08:59:18.942Z,101059.97
2022-10-02T09:02:27.420Z,101060.25
2022-10-02T09:05:45.629Z,101052.13
2022-10-02T09:08:56.079Z,101057.66
2022-10-02T09:11:52.654Z,101061.63
2022-10-02T09:14:44.017Z,101063.38
2022-10-02T09:17:36.019Z,101067.63
2022-10-02T09:20:40.162Z,101070.94
2022-10-02T09:23:37.146Z,101073.97
2022-10-02T09:26:18.967Z,101074.56
2022-10-02T09:29:40.649Z,101079.44
2022-10-02T09:32:57.697Z,101075.38
2022-10-02T09:35:53.345Z,101068.75
2022-10-02T09:39:09.681Z,101075.78
2022-10-02T09:42:20.955Z,101074.00
2022-10-02T09:45:19.014Z,101072.66
2022-10-02T09:48:34.146Z,101073.78
2022-10-02T09:51:45.448Z,101061.56
2022-10-02T09:54:48.790Z,101065.88
2022-10-02T09:57:48.930Z,101075.19
2022-10-02T10:00:23.691Z,101064.44
2022-10-02T10:03:23.448Z,101060.22
2022-10-02T10:06:25.203Z,101065.50
2022-10-02T10:09:20.764Z,101064.28
2022-10-02T10:12:18.016Z,101063.81
2022-10-02T10:15:09.128Z,101046.66
2022-10-02T10:18:04.271Z,101068.16
2022-10-02T10:21:08.615Z,101068.09
2022-10-02T10:24:09.984Z,101068.78
2022-10-02T10:27:10.959Z,101076.41
2022-10-02T10:30:18.668Z,101080.88
2022-10-02T10:33:34.864Z,101081.91
2022-10-02T10:36:48.286Z,101088.88
2022-10-02T10:39:50.074Z,101084.56
2022-10-02T10:43:07.033Z,101090.03
2022-10-02T10:45:56.497Z,101088.88
2022-10-02T10:48:49.501Z,101084.16
2022-10-02T10:51:33.664Z,101080.63
2022-10-02T10:54:50.551Z,101076.44
2022-10-02T10:57:36.055Z,101098.28
2022-10-02T11:00:18.777Z,101105.38
2022-10-02T11:03:19.341Z,101098.72
2022-10-02T11:06:12.474Z,101097.66
2022-10-02T11:09:05.582Z,101106.38
2022-10-02T11:11:41.405Z,101113.91
2022-10-02T11:14:23.801Z,101110.84
2022-10-02T11:17:20.053Z,101117.25
2022-10-02T11:20:16.199Z,101118.97
2022-10-02T11:23:13.319Z,101109.03
2022-10-02T11:26:02.630Z,101110.69
2022-10-02T11:28:52.197Z,101114.34
2022-10-02T11:31:41.095Z,101114.47
2022-10-02T11:34:38.273Z,101118.81
2022-10-02T11:37:24.369Z,101129.97
2022-10-02T11:40:17.925Z,101130.28
2022-10-02T11:43:11.360Z,101127.22
2022-10-02T11:46:07.829Z,101131.34
2022-10-02T11:49:26.279Z,101116.31
2022-10-02T11:52:29.794Z,101117.13
2022-10-02T11:55:14.783Z,101121.41
2022-10-02T11:57:55.658Z,101122.38
2022-10-02T12:01:12.303Z,101127.66
2022-10-02T12:03:59.998Z,101130.63
2022-10-02T12:06:44.728Z,101130.97
2022-10-02T12:09:26.749Z,101126.53
2022-10-02T12:12:09.728Z,101133.28
2022-10-02T12:14:47.328Z,101133.91
2022-10-02T12:17:31.725Z,101137.75
2022-10-02T12:20:32.924Z,101135.63
2022-10-02T12:23:34.514Z,101133.16
2022-10-02T12:26:29.101Z,101133.66
2022-10-02T12:29:08.473Z,101133.59
2022-10-02T12:31:51.738Z,101143.72
2022-10-02T12:34:41.855Z,101138.09
2022-10-02T12:37:21.073Z,101146.41
2022-10-02T12:40:00.920Z,101144.38
2022-10-02T12:43:19.717Z,101144.28
2022-10-02T12:46:29.568Z,101141.13
2022-10-02T12:49:15.382Z,101154.31
2022-10-02T12:52:07.704Z,101160.16
2022-10-02T12:55:11.334Z,101152.31
2022-10-02T12:57:59.322Z,101156.53
2022-10-02T13:00:50.086Z,101152.03
2022-10-02T13:04:09.360Z,101149.38
2022-10-02T13:06:56.785Z,101162.16
2022-10-02T13:09:39.334Z,101153.56
2022-10-02T13:12:30.227Z,101173.47
2022-10-02T13:15:33.693Z,101154.88
2022-10-02T13:18:21.291Z,101164.97
2022-10-02T13:21:01.648Z,101165.00
2022-10-02T13:23:42.337Z,101163.72
2022-10-02T13:26:21.753Z,101169.50
2022-10-02T13:29:16.756Z,101157.84
2022-10-02T13:32:03.502Z,101171.94
2022-10-02T13:34:50.245Z,101174.59
2022-10-02T13:37:31.382Z,101176.75
2022-10-02T13:40:17.754Z,101175.19
2022-10-02T13:43:06.280Z,101177.38
2022-10-02T13:45:42.081Z,101178.56
2022-10-02T13:48:19.946Z,101186.50
2022-10-02T13:51:00.246Z,101178.22
2022-10-02T13:53:52.931Z,101188.84
2022-10-02T13:56:37.320Z,101196.03
2022-10-02T13:59:26.567Z,101196.97
2022-10-02T14:02:10.319Z,101197.63
2022-10-02T14:04:58.617Z,101202.78
2022-10-02T14:07:45.237Z,101202.31
2022-10-02T14:10:28.245Z,101196.28
2022-10-02T14:13:11.663Z,101205.47
2022-10-02T14:15:58.348Z,101202.97
2022-10-02T14:18:48.811Z,101199.00
2022-10-02T14:21:30.875Z,101205.81
2022-10-02T14:24:22.816Z,101212.06
2022-10-02T14:27:05.415Z,101220.00
2022-10-02T14:29:49.867Z,101217.31
2022-10-02T14:32:43.656Z,101231.00
2022-10-02T14:35:35.793Z,101224.13
2022-10-02T14:38:31.890Z,101224.47
2022-10-02T14:41:22.677Z,101220.84
2022-10-02T14:44:17.443Z,101218.94
2022-10-02T14:47:15.623Z,101225.72
2022-10-02T14:49:59.335Z,101229.53
2022-10-02T14:53:07.423Z,101233.50
2022-10-02T14:56:08.097Z,101229.16
2022-10-02T14:59:01.565Z,101226.72
2022-10-02T15:01:31.342Z,101235.88
2022-10-02T15:04:29.280Z,101228.78
2022-10-02T15:07:06.483Z,101247.34
2022-10-02T15:09:49.215Z,101235.31
2022-10-02T15:12:22.553Z,101248.81
2022-10-02T15:15:06.708Z,101251.06
2022-10-02T15:17:57.437Z,101249.81
2022-10-02T15:20:48.474Z,101258.59
2022-10-02T15:23:40.335Z,101264.94
2022-10-02T15:26:34.415Z,101261.13
2022-10-02T15:29:21.023Z,101273.78
2022-10-02T15:32:25.937Z,101272.63
2022-10-02T15:35:04.871Z,101277.16
2022-10-02T15:37:45.172Z,101280.34
2022-10-02T15:40:27.103Z,101280.53
2022-10-02T15:42:58.765Z,101286.34
2022-10-02T15:45:49.683Z,101298.31
2022-10-02T15:48:43.770Z,101298.03
2022-10-02T15:51:27.865Z,101292.63
2022-10-02T15:54:08.987Z,101297.13
2022-10-02T15:57:07.993Z,101303.09
2022-10-02T16:00:01.092Z,101306.84
2022-10-02T16:02:53.290Z,101311.84
2022-10-02T16:05:39.720Z,101314.34
2022-10-02T16:08:34.346Z,101320.59
2022-10-02T16:11:28.519Z,101320.44
2022-10-02T16:14:03.414Z,101328.38
2022-10-02T16:17:17.313Z,101319.09
2022-10-02T16:20:07.026Z,101329.34
2022-10-02T16:22:55.412Z,101332.13
2022-10-02T16:25:37.963Z,101338.09
2022-10-02T16:28:25.490Z,101346.41
2022-10-02T16:31:12.834Z,101350.81
2022-10-02T16:33:54.055Z,101353.72
2022-10-02T16:36:40.898Z,101355.53
2022-10-02T16:39:31.799Z,101368.88
2022-10-02T16:42:03.012Z,101370.50
2022-10-02T16:44:57.517Z,101363.56
2022-10-02T16:47:30.486Z,101388.31
2022-10-02T16:50:05.971Z,101389.44
2022-10-02T16:52:42.499Z,101385.50
2022-10-02T16:55:23.971Z,101396.88
2022-10-02T16:58:14.971Z,101396.69
2022-10-02T17:00:55.550Z,101407.69
2022-10-02T17:03:31.675Z,101409.69
2022-10-02T17:06:07.610Z,101407.97
2022-10-02T17:08:44.436Z,101408.16
2022-10-02T17:11:21.858Z,101413.56
2022-10-02T17:14:07.099Z,101417.47
2022-10-02T17:16:42.206Z,101429.56
2022-10-02T17:19:24.327Z,101436.06
2022-10-02T17:21:56.031Z,101439.63
2022-10-02T17:24:34.872Z,101439.31
2022-10-02T17:27:16.574Z,101442.56
2022-10-02T17:30:00.051Z,101458.28
2022-10-02T17:32:39.565Z,101456.22
2022-10-02T17:35:17.106Z,101459.13
2022-10-02T17:38:05.977Z,101472.91
2022-10-02T17:40:41.014Z,101471.63
2022-10-02T17:43:24.463Z,101482.72
2022-10-02T17:46:05.136Z,101476.31
2022-10-02T17:48:45.059Z,101486.31
2022-10-02T17:55:09.869Z,101495.44
2022-10-02T17:57:52.282Z,101506.59
2022-10-02T18:00:24.809Z,101506.66
2022-10-02T18:03:20.237Z,101509.53
2022-10-02T18:05:58.478Z,101512.53
2022-10-02T18:09:00.319Z,101519.69
2022-10-02T18:11:53.568Z,101529.72
2022-10-02T18:14:37.442Z,101527.44
2022-10-02T18:17:18.859Z,101533.41
2022-10-02T18:19:57.322Z,101529.94
2022-10-02T18:22:58.514Z,101529.59
2022-10-02T18:25:39.261Z,101529.72
2022-10-02T18:28:37.729Z,101534.13
2022-10-02T18:31:44.415Z,101543.41
2022-10-02T18:34:31.069Z,101543.66
2022-10-02T18:37:19.788Z,101553.69
2022-10-02T18:40:07.602Z,101552.00
2022-10-02T18:42:57.166Z,101555.59
2022-10-02T18:45:41.699Z,101554.50
2022-10-02T18:48:31.752Z,101551.88
2022-10-02T18:51:18.750Z,101558.69
2022-10-02T18:54:11.585Z,101558.19
2022-10-02T18:57:00.232Z,101562.84
2022-10-02T18:59:41.557Z,101566.19
2022-10-02T19:02:26.148Z,101564.22
2022-10-02T19:05:08.391Z,101565.97
2022-10-02T19:07:42.941Z,101576.34
2022-10-02T19:10:29.814Z,101583.28
2022-10-02T19:13:03.602Z,101588.03
2022-10-02T19:15:34.875Z,101593.56
2022-10-02T19:18:06.529Z,101591.63
2022-10-02T19:20:42.127Z,101594.00
2022-10-02T19:23:21.218Z,101591.75
2022-10-02T19:25:52.690Z,101603.19
2022-10-02T19:28:25.376Z,101601.06
2022-10-02T19:30:58.291Z,101606.91
2022-10-02T19:33:41.216Z,101606.75
2022-10-02T19:36:18.026Z,101613.00
2022-10-02T19:38:56.456Z,101616.31
2022-10-02T19:41:26.257Z,101613.19
2022-10-02T19:43:59.361Z,101613.94
2022-10-02T19:46:37.171Z,101617.06
2022-10-02T19:49:08.066Z,101616.22
2022-10-02T19:51:44.801Z,101609.31
2022-10-02T19:54:21.253Z,101615.50
2022-10-02T19:56:57.591Z,101616.72
2022-10-02T19:59:32.487Z,101625.19
2022-10-02T20:02:14.233Z,101619.69
2022-10-02T20:04:43.237Z,101620.09
2022-10-02T20:07:17.427Z,101624.75
2022-10-02T20:09:53.369Z,101629.53
2022-10-02T20:12:26.937Z,101637.88
2022-10-02T20:14:59.874Z,101640.50
2022-10-02T20:17:28.121Z,101634.91
2022-10-02T20:20:00.301Z,101632.09
2022-10-02T20:22:34.454Z,101640.13
2022-10-02T20:25:12.178Z,101644.19
2022-10-02T20:27:45.227Z,101641.44
2022-10-02T20:30:17.098Z,101647.72
2022-10-02T20:32:53.412Z,101643.16
2022-10-02T20:35:34.568Z,101646.28
2022-10-02T20:38:10.794Z,101650.13
2022-10-02T20:40:46.475Z,101652.72
2022-10-02T20:43:22.651Z,101653.16
2022-10-02T20:46:02.977Z,101662.59
2022-10-02T20:49:08.166Z,101663.66
2022-10-02T20:52:05.912Z,101669.97
2022-10-02T20:54:54.051Z,101667.16
2022-10-02T20:58:06.504Z,101678.16
2022-10-02T21:00:53.281Z,101682.91
2022-10-02T21:03:46.265Z,101682.91
2022-10-02T21:06:47.800Z,101690.63
2022-10-02T21:09:50.793Z,101692.19
2022-10-02T21:12:45.536Z,101692.50
2022-10-02T21:15:55.218Z,101689.72
2022-10-02T21:19:03.975Z,101690.28
2022-10-02T21:21:58.474Z,101686.88
2022-10-02T21:25:05.542Z,101691.28
2022-10-02T21:28:07.278Z,101699.69
2022-10-02T21:30:47.140Z,101696.97
2022-10-02T21:33:22.157Z,101698.69
2022-10-02T21:36:01.106Z,101704.31
2022-10-02T21:39:06.939Z,101702.47
2022-10-02T21:42:21.611Z,101709.59
2022-10-02T21:45:23.905Z,101715.34
2022-10-02T21:48:24.229Z,101712.44
2022-10-02T21:51:40.807Z,101718.75
2022-10-02T21:54:57.311Z,101716.31
2022-10-02T21:57:59.655Z,101725.25
2022-10-02T22:00:31.211Z,101720.16
2022-10-02T22:03:34.258Z,101727.94
2022-10-02T22:06:13.478Z,101727.34
2022-10-02T22:08:56.415Z,101731.88
2022-10-02T22:11:38.100Z,101739.09
2022-10-02T22:14:13.427Z,101738.84
2022-10-02T22:16:52.656Z,101738.66
2022-10-02T22:19:41.113Z,101745.78
2022-10-02T22:22:25.938Z,101752.56
2022-10-02T22:25:07.840Z,101760.53
2022-10-02T22:27:52.969Z,101762.31
2022-10-02T22:30:25.963Z,101765.06
2022-10-02T22:33:20.981Z,101779.44
2022-10-02T22:36:16.015Z,101776.47
2022-10-02T22:38:49.232Z,101777.94
2022-10-02T22:41:27.348Z,101769.16
2022-10-02T22:43:59.739Z,101779.94
2022-10-02T22:46:40.983Z,101777.84
2022-10-02T22:49:22.295Z,101782.03
2022-10-02T22:52:00.043Z,101776.56
2022-10-02T22:54:35.876Z,101780.84
2022-10-02T22:57:16.038Z,101785.25
2022-10-02T22:59:51.259Z,101782.75
2022-10-02T23:02:28.254Z,101786.38
2022-10-02T23:05:05.892Z,101788.94
2022-10-02T23:07:44.476Z,101793.91
2022-10-02T23:10:25.967Z,101792.22
2022-10-02T23:13:03.256Z,101789.91
2022-10-02T23:15:41.837Z,101796.31
2022-10-02T23:18:26.144Z,101797.03
2022-10-02T23:21:04.518Z,101795.47
2022-10-02T23:23:38.975Z,101801.75
2022-10-02T23:26:13.402Z,101800.19
2022-10-02T23:28:48.692Z,101805.31
2022-10-02T23:31:23.943Z,101806.16
2022-10-02T23:33:59.064Z,101811.69
2022-10-02T23:36:36.368Z,101817.16
2022-10-02T23:39:12.768Z,101811.56
2022-10-02T23:41:49.981Z,101824.19
2022-10-02T23:44:32.254Z,101826.91
2022-10-02T23:47:17.991Z,101832.56
2022-10-02T23:49:49.960Z,101830.59
2022-10-02T23:52:49.895Z,101838.13
2022-10-02T23:55:37.741Z,101837.59
2022-10-02T23:58:32.879Z,101839.50
